Time;durP1;ratioP1;P1;durP2;ratioP2;P2;SDS_P1;SDS_P2;PMS_P1;PMS_P2;Temp;Humidity;BMP_temperature;BMP_pressure;BME280_temperature;BME280_humidity;BME280_pressure;Samples;Min_cycle;Max_cycle;Signal;HPM_P1;HPM_P2
2022/07/15 00:00:19;;;;;;;3.50;1.05;;;15.20;94.30;;;;;;4117374;28;20553;-81
2022/07/15 00:02:20;;;;;;;7.82;0.90;;;15.30;94.50;;;;;;4115892;28;20121;-81
2022/07/15 00:04:21;;;;;;;6.75;0.90;;;15.30;94.50;;;;;;4109202;28;20104;-81
2022/07/15 00:06:21;;;;;;;6.80;1.00;;;15.30;94.50;;;;;;4115741;28;20098;-81
2022/07/15 00:08:22;;;;;;;6.22;1.10;;;15.30;94.70;;;;;;4133506;28;20487;-82
2022/07/15 00:10:23;;;;;;;3.70;0.82;;;15.30;94.80;;;;;;4115280;28;20043;-81
2022/07/15 00:12:24;;;;;;;2.83;0.80;;;15.30;95.00;;;;;;4099682;29;20051;-81
2022/07/15 00:14:25;;;;;;;9.23;1.65;;;15.40;95.10;;;;;;4148144;28;20068;-81
2022/07/15 00:16:25;;;;;;;5.18;0.98;;;15.40;95.10;;;;;;4124069;28;20044;-81
2022/07/15 00:18:26;;;;;;;5.25;1.15;;;15.40;95.10;;;;;;4130419;28;20414;-81
2022/07/15 00:20:33;;;;;;;5.75;1.23;;;15.40;95.40;;;;;;4133058;28;20146;-81
2022/07/15 00:22:34;;;;;;;7.75;0.98;;;15.40;95.50;;;;;;4133085;28;20550;-82
2022/07/15 00:24:34;;;;;;;9.73;1.10;;;15.30;95.60;;;;;;4133174;28;20050;-82
2022/07/15 00:26:36;;;;;;;5.68;0.90;;;15.30;95.80;;;;;;4100367;29;20400;-81
2022/07/15 00:28:37;;;;;;;8.07;0.82;;;15.30;95.80;;;;;;4134445;28;20046;-81
2022/07/15 00:30:40;;;;;;;9.18;1.15;;;15.40;96.10;;;;;;4114677;28;20582;-81
2022/07/15 00:32:41;;;;;;;4.45;1.02;;;15.40;96.10;;;;;;4114752;28;20113;-81
2022/07/15 00:34:41;;;;;;;5.38;0.93;;;15.40;96.20;;;;;;4143260;28;20054;-81
2022/07/15 00:36:44;;;;;;;6.80;1.30;;;15.30;96.20;;;;;;4133200;28;20563;-82
2022/07/15 00:38:44;;;;;;;4.68;1.58;;;15.20;96.30;;;;;;4115336;28;20121;-81
2022/07/15 00:40:47;;;;;;;5.93;1.50;;;15.20;96.50;;;;;;4132514;28;20434;-82
2022/07/15 00:42:48;;;;;;;4.13;0.75;;;15.10;96.70;;;;;;4115203;28;20134;-81
2022/07/15 00:44:48;;;;;;;10.02;1.20;;;15.10;96.90;;;;;;4147612;28;20045;-81
2022/07/15 00:46:50;;;;;;;6.60;1.15;;;15.10;97.00;;;;;;4115407;28;20495;-81
2022/07/15 00:48:51;;;;;;;3.25;0.73;;;15.10;97.10;;;;;;4097861;28;20047;-82
2022/07/15 00:50:53;;;;;;;4.10;0.80;;;15.10;97.20;;;;;;4130275;28;20100;-82
2022/07/15 00:53:03;;;;;;;8.32;0.90;;;15.00;97.30;;;;;;4147721;28;20052;-81
2022/07/15 00:55:06;;;;;;;3.50;0.65;;;15.00;97.40;;;;;;4132642;28;20046;-81
2022/07/15 00:57:07;;;;;;;6.50;1.17;;;15.00;97.50;;;;;;4115077;28;20051;-82
2022/07/15 00:59:09;;;;;;;5.18;0.80;;;15.00;97.60;;;;;;4115199;28;20051;-81
2022/07/15 01:01:10;;;;;;;7.07;0.90;;;14.90;97.50;;;;;;4132306;28;20047;-82
2022/07/15 01:03:12;;;;;;;5.50;1.05;;;15.00;97.70;;;;;;4132264;28;20129;-82
2022/07/15 01:05:13;;;;;;;4.85;1.10;;;15.00;97.70;;;;;;4128815;28;20120;-82
2022/07/15 01:07:14;;;;;;;6.53;1.00;;;14.90;97.70;;;;;;4126589;28;20050;-82
2022/07/15 01:09:15;;;;;;;3.83;1.23;;;14.90;97.70;;;;;;4115353;28;20421;-82
2022/07/15 01:11:16;;;;;;;2.33;0.60;;;14.90;97.80;;;;;;4115086;28;20165;-82
2022/07/15 01:13:19;;;;;;;5.88;0.98;;;14.90;97.70;;;;;;4114821;28;20050;-82
2022/07/15 01:15:20;;;;;;;6.53;1.00;;;14.90;97.60;;;;;;4146724;28;20046;-82
2022/07/15 01:17:21;;;;;;;3.42;0.60;;;14.90;97.60;;;;;;4131999;28;20796;-82
2022/07/15 01:19:21;;;;;;;7.70;0.90;;;14.90;97.60;;;;;;4146541;28;20128;-82
2022/07/15 01:21:22;;;;;;;5.68;0.60;;;14.80;97.50;;;;;;4098805;28;20568;-82
2022/07/15 01:23:23;;;;;;;6.28;0.75;;;14.90;97.50;;;;;;4134290;28;20039;-82
2022/07/15 01:25:24;;;;;;;5.85;0.60;;;14.80;97.40;;;;;;4132151;28;20108;-82
2022/07/15 01:27:25;;;;;;;3.05;1.00;;;14.80;97.40;;;;;;4114550;28;20050;-80
2022/07/15 01:29:27;;;;;;;3.92;0.60;;;14.80;97.30;;;;;;4132118;28;20054;-81
2022/07/15 01:31:28;;;;;;;6.75;1.40;;;14.80;97.20;;;;;;4114600;28;20459;-81
2022/07/15 01:33:30;;;;;;;4.38;0.63;;;14.80;97.30;;;;;;4130239;28;20114;-81
2022/07/15 01:35:30;;;;;;;1.95;0.82;;;14.70;97.10;;;;;;4146441;28;20081;-82
2022/07/15 01:37:31;;;;;;;4.25;0.50;;;14.70;97.20;;;;;;4131868;28;20502;-82
2022/07/15 01:39:32;;;;;;;5.47;0.60;;;14.60;97.20;;;;;;4131675;28;20069;-82
2022/07/15 01:41:33;;;;;;;2.92;0.40;;;14.60;97.20;;;;;;4105353;28;20047;-82
2022/07/15 01:43:33;;;;;;;2.33;0.55;;;14.50;97.30;;;;;;4130344;28;20038;-82
2022/07/15 01:45:34;;;;;;;4.22;0.70;;;14.50;97.30;;;;;;4112815;28;20066;-82
2022/07/15 01:47:42;;;;;;;2.85;0.65;;;14.40;97.40;;;;;;4114469;28;20181;-82
2022/07/15 01:49:43;;;;;;;1.95;0.50;;;14.40;97.50;;;;;;4146723;28;20104;-82
2022/07/15 01:51:44;;;;;;;3.15;0.70;;;14.40;97.50;;;;;;4114388;28;20058;-81
2022/07/15 01:53:45;;;;;;;6.15;1.13;;;14.40;97.60;;;;;;4146565;28;20410;-81
2022/07/15 01:55:46;;;;;;;2.22;0.30;;;14.30;97.50;;;;;;4147038;28;20074;-81
2022/07/15 01:57:47;;;;;;;1.70;0.63;;;14.30;97.60;;;;;;4145357;28;20046;-81
2022/07/15 01:59:49;;;;;;;3.92;0.80;;;14.30;97.50;;;;;;4116473;28;20081;-82
2022/07/15 02:01:51;;;;;;;4.28;0.45;;;14.30;97.70;;;;;;4152383;28;20042;-81
2022/07/15 02:03:52;;;;;;;5.10;0.68;;;14.30;97.60;;;;;;4152379;28;20116;-81
2022/07/15 02:05:52;;;;;;;6.97;0.65;;;14.20;97.40;;;;;;4152968;28;20054;-81
2022/07/15 02:07:53;;;;;;;4.97;0.50;;;14.20;97.50;;;;;;4152636;28;20053;-81
2022/07/15 02:09:54;;;;;;;3.70;0.93;;;14.20;97.30;;;;;;4119567;28;20050;-81
2022/07/15 02:11:55;;;;;;;3.08;0.52;;;14.10;97.20;;;;;;4136776;28;20050;-81
2022/07/15 02:13:58;;;;;;;2.67;0.45;;;14.10;97.10;;;;;;4119532;28;20525;-82
2022/07/15 02:15:59;;;;;;;7.00;0.50;;;14.10;97.00;;;;;;4140739;28;20088;-82
2022/07/15 02:18:01;;;;;;;1.83;0.52;;;14.00;96.90;;;;;;4150231;28;20065;-82
2022/07/15 02:20:01;;;;;;;1.08;0.50;;;14.00;97.00;;;;;;4152149;28;20050;-82
2022/07/15 02:22:02;;;;;;;7.68;0.50;;;14.00;96.90;;;;;;4152213;28;20053;-81
2022/07/15 02:24:03;;;;;;;1.95;0.50;;;14.00;96.80;;;;;;4152116;28;20052;-82
2022/07/15 02:26:04;;;;;;;2.88;0.65;;;14.00;96.80;;;;;;4119569;28;20075;-82
2022/07/15 02:28:07;;;;;;;8.45;0.40;;;14.00;96.70;;;;;;4119728;28;20054;-82
2022/07/15 02:30:08;;;;;;;4.57;0.52;;;14.00;96.70;;;;;;4152217;28;20157;-82
2022/07/15 02:32:09;;;;;;;1.35;0.35;;;13.90;96.50;;;;;;4119630;28;20054;-81
2022/07/15 02:34:10;;;;;;;1.92;0.25;;;13.90;96.40;;;;;;4119419;28;20138;-81
2022/07/15 02:36:12;;;;;;;3.15;0.38;;;13.80;96.40;;;;;;4139275;28;20507;-81
2022/07/15 02:38:13;;;;;;;2.08;0.40;;;13.70;96.40;;;;;;4135545;28;20054;-81
2022/07/15 02:40:14;;;;;;;1.25;0.28;;;13.60;96.50;;;;;;4124405;28;20046;-81
2022/07/15 02:42:14;;;;;;;1.55;0.30;;;13.60;96.60;;;;;;4136962;28;20487;-80
2022/07/15 02:44:15;;;;;;;3.17;0.35;;;13.60;96.60;;;;;;4119606;28;20487;-80
2022/07/15 02:46:17;;;;;;;4.57;0.63;;;13.50;96.70;;;;;;4151481;28;20037;-81
2022/07/15 02:48:17;;;;;;;2.58;0.32;;;13.60;96.80;;;;;;4136828;28;20507;-81
2022/07/15 02:50:20;;;;;;;1.58;0.40;;;13.60;96.80;;;;;;4119297;28;20050;-79
2022/07/15 02:52:21;;;;;;;6.57;0.52;;;13.60;96.60;;;;;;4132439;28;20038;-81
2022/07/15 02:54:22;;;;;;;2.65;0.40;;;13.60;96.60;;;;;;4137060;28;20046;-81
2022/07/15 02:56:22;;;;;;;5.40;0.68;;;13.60;96.70;;;;;;4151742;28;20080;-81
2022/07/15 02:58:23;;;;;;;2.60;0.40;;;13.60;96.70;;;;;;4151284;28;20050;-81
2022/07/15 03:00:24;;;;;;;2.20;0.25;;;13.60;96.80;;;;;;4119769;28;20129;-81
2022/07/15 03:02:25;;;;;;;4.75;0.50;;;13.60;96.80;;;;;;4119390;28;20387;-82
2022/07/15 03:04:27;;;;;;;1.85;0.35;;;13.70;96.80;;;;;;4103605;29;20119;-81
2022/07/15 03:06:28;;;;;;;1.05;0.32;;;13.70;96.70;;;;;;4136482;28;20092;-81
2022/07/15 03:08:29;;;;;;;4.55;0.30;;;13.70;96.60;;;;;;4119008;28;20491;-81
2022/07/15 03:10:29;;;;;;;1.38;0.20;;;13.70;96.50;;;;;;4158243;28;20529;-82
2022/07/15 03:12:32;;;;;;;1.75;0.40;;;13.70;96.50;;;;;;4165402;28;20049;-82
2022/07/15 03:14:33;;;;;;;1.80;0.40;;;13.70;96.60;;;;;;4165892;28;20136;-81
2022/07/15 03:16:34;;;;;;;4.00;0.90;;;13.70;96.50;;;;;;4133147;28;20047;-81
2022/07/15 03:18:34;;;;;;;3.22;0.68;;;13.70;96.50;;;;;;4150891;28;20089;-81
2022/07/15 03:20:35;;;;;;;3.42;0.40;;;13.70;96.50;;;;;;4116454;28;20117;-81
2022/07/15 03:22:36;;;;;;;1.10;0.47;;;13.70;96.60;;;;;;4149500;28;20451;-82
2022/07/15 03:24:37;;;;;;;1.65;0.40;;;13.60;96.70;;;;;;4100709;28;20086;-81
2022/07/15 03:26:37;;;;;;;4.25;0.82;;;13.60;96.80;;;;;;4116569;28;20055;-80
2022/07/15 03:28:38;;;;;;;6.55;1.15;;;13.60;96.80;;;;;;4129727;28;20134;-82
2022/07/15 03:30:39;;;;;;;1.55;0.32;;;13.60;96.80;;;;;;4100080;29;20058;-81
2022/07/15 03:32:40;;;;;;;6.32;1.25;;;13.70;96.70;;;;;;4116388;28;20061;-81
2022/07/15 03:34:41;;;;;;;2.38;0.40;;;13.60;96.70;;;;;;4100570;29;20090;-82
2022/07/15 03:36:42;;;;;;;2.53;0.35;;;13.70;96.70;;;;;;4133298;28;20046;-81
2022/07/15 03:38:42;;;;;;;4.90;0.43;;;13.70;96.70;;;;;;4133199;28;20080;-82
2022/07/15 03:40:43;;;;;;;3.20;0.50;;;13.70;96.70;;;;;;4132968;28;20042;-81
2022/07/15 03:42:44;;;;;;;2.40;0.50;;;13.70;96.70;;;;;;4115329;28;20062;-82
2022/07/15 03:44:44;;;;;;;1.17;0.30;;;13.80;96.70;;;;;;4115595;28;20145;-81
2022/07/15 03:46:46;;;;;;;2.30;0.32;;;13.80;96.70;;;;;;4109464;28;20049;-82
2022/07/15 03:48:46;;;;;;;3.53;0.55;;;13.80;96.70;;;;;;4116898;28;20039;-81
2022/07/15 03:50:47;;;;;;;3.88;0.50;;;13.80;96.70;;;;;;4117453;28;20125;-80
2022/07/15 03:52:48;;;;;;;2.13;0.47;;;13.80;96.70;;;;;;4125749;28;20048;-81
2022/07/15 03:54:49;;;;;;;3.33;0.30;;;13.80;96.70;;;;;;4116236;28;20070;-82
2022/07/15 03:56:49;;;;;;;2.58;0.32;;;13.90;96.70;;;;;;4116150;28;20050;-82
2022/07/15 03:58:50;;;;;;;0.82;0.22;;;13.90;96.70;;;;;;4133413;28;20132;-81
2022/07/15 04:00:52;;;;;;;2.10;0.55;;;13.90;96.50;;;;;;4115960;28;20411;-81
2022/07/15 04:02:53;;;;;;;4.45;0.80;;;13.90;96.60;;;;;;4143795;28;20053;-81
2022/07/15 04:04:54;;;;;;;2.78;0.40;;;14.00;96.70;;;;;;4142312;28;20111;-81
2022/07/15 04:06:54;;;;;;;0.82;0.30;;;13.90;96.50;;;;;;4132272;28;20133;-82
2022/07/15 04:08:55;;;;;;;6.72;0.70;;;14.00;96.50;;;;;;4149637;28;20088;-82
2022/07/15 04:10:56;;;;;;;4.03;0.52;;;14.00;96.50;;;;;;4125071;28;20930;-81
2022/07/15 04:12:57;;;;;;;9.68;1.27;;;14.00;96.50;;;;;;4115971;28;20062;-82
2022/07/15 04:14:58;;;;;;;3.83;0.30;;;14.00;96.40;;;;;;4115791;28;20055;-82
2022/07/15 04:16:59;;;;;;;3.20;0.40;;;14.00;96.50;;;;;;4132566;28;20049;-81
2022/07/15 04:18:59;;;;;;;1.92;0.30;;;14.00;96.50;;;;;;4115838;28;20570;-82
2022/07/15 04:21:01;;;;;;;2.45;1.05;;;14.00;96.50;;;;;;4115427;28;20114;-81
2022/07/15 04:23:02;;;;;;;1.50;0.40;;;14.00;96.70;;;;;;4147938;28;20054;-82
2022/07/15 04:25:03;;;;;;;2.67;0.40;;;14.00;96.70;;;;;;4115288;28;20430;-82
2022/07/15 04:27:03;;;;;;;3.95;0.43;;;14.00;96.70;;;;;;4147705;28;20042;-82
2022/07/15 04:29:04;;;;;;;3.40;0.60;;;14.00;96.70;;;;;;4115708;28;20558;-82
2022/07/15 04:31:05;;;;;;;2.53;0.82;;;14.00;96.70;;;;;;4115629;28;20472;-82
2022/07/15 04:33:06;;;;;;;1.08;0.20;;;13.90;96.70;;;;;;4115676;28;20567;-82
2022/07/15 04:35:07;;;;;;;7.55;0.70;;;13.90;96.70;;;;;;4132855;28;20046;-82
2022/07/15 04:37:08;;;;;;;1.70;0.30;;;13.90;96.90;;;;;;4114688;28;20109;-82
2022/07/15 04:39:08;;;;;;;0.90;0.25;;;13.90;97.00;;;;;;4120440;28;20108;-82
2022/07/15 04:41:09;;;;;;;4.28;0.40;;;13.90;97.10;;;;;;4131454;28;20050;-80
2022/07/15 04:43:10;;;;;;;5.35;1.02;;;13.90;97.20;;;;;;4140002;28;20045;-81
2022/07/15 04:45:11;;;;;;;2.50;0.30;;;13.90;97.20;;;;;;4115489;28;20050;-81
2022/07/15 04:47:11;;;;;;;3.25;0.70;;;13.90;97.30;;;;;;4115392;28;20055;-82
2022/07/15 04:51:31;;;;;;;2.35;0.30;;;14.00;97.40;;;;;;4115619;28;20058;-82
2022/07/15 04:53:34;;;;;;;3.15;0.40;;;14.00;97.50;;;;;;4115652;28;20047;-81
2022/07/15 04:55:34;;;;;;;7.30;0.50;;;14.00;97.50;;;;;;4100121;29;20058;-81
2022/07/15 04:57:35;;;;;;;5.85;0.35;;;14.00;97.70;;;;;;4164087;28;20387;-80
2022/07/15 04:59:36;;;;;;;2.25;0.52;;;14.10;97.80;;;;;;4142147;28;20050;-81
2022/07/15 05:01:36;;;;;;;4.60;0.47;;;14.10;97.80;;;;;;4107315;28;20051;-81
2022/07/15 05:03:37;;;;;;;2.85;0.55;;;14.10;97.90;;;;;;4117154;28;20510;-81
2022/07/15 05:05:38;;;;;;;4.68;0.50;;;14.10;97.90;;;;;;4131511;28;20137;-82
2022/07/15 05:07:39;;;;;;;2.25;0.30;;;14.20;98.10;;;;;;4099112;29;20415;-81
2022/07/15 05:09:40;;;;;;;2.38;1.10;;;14.20;98.30;;;;;;4116457;28;20416;-80
2022/07/15 05:11:41;;;;;;;2.10;0.63;;;14.20;98.50;;;;;;4131388;28;20054;-81
2022/07/15 05:13:42;;;;;;;3.75;0.70;;;14.30;98.60;;;;;;4116440;28;20050;-81
2022/07/15 05:15:42;;;;;;;2.10;0.38;;;14.30;98.70;;;;;;4116160;28;20436;-81
2022/07/15 05:17:43;;;;;;;0.50;0.40;;;14.40;98.70;;;;;;4117990;28;20574;-81
2022/07/15 05:19:44;;;;;;;3.90;0.80;;;14.40;98.80;;;;;;4130879;28;20121;-81
2022/07/15 05:21:46;;;;;;;5.35;0.68;;;14.40;98.90;;;;;;4131885;28;20085;-80
2022/07/15 05:23:46;;;;;;;3.03;0.50;;;14.50;99.00;;;;;;4147168;28;20042;-81
2022/07/15 05:25:47;;;;;;;4.85;0.55;;;14.50;99.00;;;;;;4114922;28;20491;-81
2022/07/15 05:27:48;;;;;;;3.03;0.40;;;14.50;99.10;;;;;;4114595;28;20055;-81
2022/07/15 05:29:49;;;;;;;3.22;0.60;;;14.50;99.10;;;;;;4131495;28;20506;-81
2022/07/15 05:31:49;;;;;;;4.28;0.52;;;14.50;99.20;;;;;;4118913;28;20118;-81
2022/07/15 05:33:52;;;;;;;3.65;0.77;;;14.60;99.30;;;;;;4131221;28;20081;-81
2022/07/15 05:35:52;;;;;;;4.32;0.65;;;14.60;99.40;;;;;;4126803;28;20089;-81
2022/07/15 05:37:53;;;;;;;3.60;0.60;;;14.70;99.40;;;;;;4117754;28;20039;-81
2022/07/15 05:39:54;;;;;;;5.50;0.90;;;14.70;99.40;;;;;;4131860;28;20065;-82
2022/07/15 05:41:55;;;;;;;3.03;0.40;;;14.70;99.40;;;;;;4131752;28;20050;-82
2022/07/15 05:43:55;;;;;;;2.17;0.43;;;14.70;99.40;;;;;;4141791;28;20057;-81
2022/07/15 05:45:56;;;;;;;1.52;0.30;;;14.70;99.40;;;;;;4108772;28;20054;-82
2022/07/15 05:47:57;;;;;;;3.60;0.50;;;14.70;99.50;;;;;;4113838;28;20106;-81
2022/07/15 05:49:57;;;;;;;6.68;0.55;;;14.70;99.50;;;;;;4141480;28;20502;-81
2022/07/15 05:51:58;;;;;;;4.63;0.55;;;14.70;99.60;;;;;;4110439;28;20051;-82
2022/07/15 05:54:00;;;;;;;1.63;0.40;;;14.80;99.80;;;;;;4145401;28;20053;-82
2022/07/15 05:56:00;;;;;;;3.03;0.50;;;14.80;99.60;;;;;;4132678;28;20046;-81
2022/07/15 05:58:06;;;;;;;1.27;0.20;;;14.80;99.60;;;;;;4113945;28;20072;-81
2022/07/15 06:00:08;;;;;;;1.90;0.40;;;14.80;99.60;;;;;;4114553;28;20062;-81
2022/07/15 06:02:09;;;;;;;2.33;0.40;;;14.90;99.80;;;;;;4114259;28;20047;-82
2022/07/15 06:04:10;;;;;;;3.80;0.47;;;14.90;99.80;;;;;;4114120;28;20647;-83
2022/07/15 06:06:11;;;;;;;2.83;0.40;;;15.00;99.90;;;;;;4114219;28;20047;-82
2022/07/15 06:08:11;;;;;;;2.15;0.50;;;15.00;99.90;;;;;;4131187;28;20130;-82
2022/07/15 06:10:12;;;;;;;1.17;0.40;;;15.00;99.90;;;;;;4131376;28;20049;-82
2022/07/15 06:12:13;;;;;;;5.40;0.98;;;15.10;99.90;;;;;;4132161;28;20093;-81
2022/07/15 06:14:13;;;;;;;2.63;0.60;;;15.10;99.90;;;;;;4145627;28;20042;-82
2022/07/15 06:16:15;;;;;;;2.83;0.43;;;15.10;99.90;;;;;;4132370;28;20173;-81
2022/07/15 06:18:16;;;;;;;2.88;0.38;;;15.10;99.90;;;;;;4132487;28;20046;-81
2022/07/15 06:20:17;;;;;;;4.50;0.40;;;15.10;99.90;;;;;;4142272;28;20049;-80
2022/07/15 06:22:18;;;;;;;1.65;0.63;;;15.00;99.90;;;;;;4144727;28;20077;-82
2022/07/15 06:24:19;;;;;;;4.93;0.32;;;15.00;99.90;;;;;;4145825;28;20054;-81
2022/07/15 06:26:20;;;;;;;2.50;0.50;;;14.90;99.90;;;;;;4087956;29;20052;-82
2022/07/15 06:28:20;;;;;;;5.18;0.52;;;14.80;99.90;;;;;;4123654;28;20052;-82
2022/07/15 06:30:21;;;;;;;4.20;1.02;;;14.90;99.90;;;;;;4145832;28;20085;-82
2022/07/15 06:32:22;;;;;;;3.60;0.50;;;14.90;99.90;;;;;;4099000;29;20055;-82
2022/07/15 06:34:22;;;;;;;0.90;0.28;;;14.90;99.90;;;;;;4115533;28;20046;-81
2022/07/15 06:36:23;;;;;;;2.83;0.82;;;15.00;99.90;;;;;;4116966;28;20089;-81
2022/07/15 06:38:24;;;;;;;1.98;0.43;;;15.10;99.90;;;;;;4101942;29;20048;-82
2022/07/15 06:40:24;;;;;;;2.67;0.50;;;15.10;99.90;;;;;;4111395;28;20495;-82
2022/07/15 06:42:25;;;;;;;1.52;0.40;;;15.20;99.90;;;;;;4147815;28;20391;-82
2022/07/15 06:44:26;;;;;;;2.45;0.60;;;15.10;99.90;;;;;;4112255;28;20042;-81
2022/07/15 06:46:27;;;;;;;2.03;0.35;;;15.10;99.90;;;;;;4145901;28;20042;-82
2022/07/15 06:48:29;;;;;;;2.83;0.40;;;15.10;99.90;;;;;;4145779;28;20038;-82
2022/07/15 06:50:29;;;;;;;3.47;0.40;;;15.10;99.90;;;;;;4139915;28;20050;-81
2022/07/15 06:52:30;;;;;;;3.00;0.70;;;15.10;99.90;;;;;;4129654;28;20038;-81
2022/07/15 06:54:31;;;;;;;2.47;0.60;;;15.20;99.90;;;;;;4159970;28;20620;-81
2022/07/15 06:56:32;;;;;;;0.32;0.20;;;15.20;99.90;;;;;;4115810;28;20043;-81
2022/07/15 06:58:32;;;;;;;2.83;0.30;;;15.30;99.90;;;;;;4143641;28;20056;-81
2022/07/15 07:00:33;;;;;;;5.70;0.52;;;15.30;99.90;;;;;;4115320;28;20082;-81
2022/07/15 07:02:35;;;;;;;5.13;0.80;;;15.20;99.90;;;;;;4118022;28;20110;-81
2022/07/15 07:04:35;;;;;;;2.40;0.50;;;15.20;99.90;;;;;;4145144;28;20545;-81
2022/07/15 07:06:36;;;;;;;0.90;0.30;;;15.20;99.90;;;;;;4148110;28;20104;-81
2022/07/15 07:08:37;;;;;;;3.65;0.55;;;15.20;99.90;;;;;;4148491;28;20069;-81
2022/07/15 07:10:38;;;;;;;0.80;0.28;;;15.20;99.90;;;;;;4145417;28;20447;-81
2022/07/15 07:12:38;;;;;;;3.63;0.50;;;15.30;99.90;;;;;;4107986;28;20058;-81
2022/07/15 07:14:39;;;;;;;3.70;0.55;;;15.30;99.90;;;;;;4147737;28;20601;-80
2022/07/15 07:16:40;;;;;;;2.53;0.50;;;15.40;99.90;;;;;;4124575;28;20530;-82
2022/07/15 07:18:41;;;;;;;0.43;0.35;;;15.50;99.90;;;;;;4120690;28;20531;-81
2022/07/15 07:20:43;;;;;;;1.30;0.75;;;15.50;99.90;;;;;;4146355;28;20053;-81
2022/07/15 07:22:44;;;;;;;0.82;0.20;;;15.60;99.90;;;;;;4135866;28;20066;-82
2022/07/15 07:24:45;;;;;;;4.53;1.17;;;15.70;99.90;;;;;;4105663;28;20443;-82
2022/07/15 07:26:45;;;;;;;6.25;0.68;;;15.80;99.90;;;;;;4137204;28;20050;-83
2022/07/15 07:28:48;;;;;;;2.75;0.90;;;15.90;99.90;;;;;;4143033;28;20128;-83
2022/07/15 07:30:50;;;;;;;1.23;0.30;;;15.90;99.90;;;;;;4143652;28;20121;-82
2022/07/15 07:32:52;;;;;;;9.05;0.95;;;16.00;99.90;;;;;;4143251;28;20049;-82
2022/07/15 07:34:53;;;;;;;4.65;0.50;;;16.10;99.90;;;;;;4132624;28;20043;-82
2022/07/15 07:36:53;;;;;;;2.13;0.73;;;16.10;99.90;;;;;;4147191;28;20425;-83
2022/07/15 07:38:54;;;;;;;3.13;0.80;;;16.20;99.90;;;;;;4111188;28;20090;-82
2022/07/15 07:41:00;;;;;;;4.40;0.40;;;16.30;99.90;;;;;;4158351;28;20054;-84
2022/07/15 07:43:09;;;;;;;2.63;0.30;;;16.40;99.90;;;;;;4145608;28;20065;-83
2022/07/15 07:45:37;;;;;;;3.97;0.40;;;16.40;99.90;;;;;;4122544;28;20460;-82
2022/07/15 07:48:00;;;;;;;2.13;0.40;;;16.40;99.90;;;;;;4137126;28;20046;-83
2022/07/15 07:50:01;;;;;;;2.20;0.32;;;16.50;99.90;;;;;;4137211;28;20049;-83
2022/07/15 07:52:03;;;;;;;1.27;0.30;;;16.50;99.90;;;;;;4118584;28;20042;-83
2022/07/15 07:54:04;;;;;;;2.22;0.20;;;16.60;99.90;;;;;;4101666;29;20204;-83
2022/07/15 07:56:05;;;;;;;1.55;0.20;;;16.60;99.90;;;;;;4145204;28;20045;-83
2022/07/15 07:58:06;;;;;;;3.42;1.48;;;16.60;99.90;;;;;;4136238;28;20418;-83
2022/07/15 08:00:08;;;;;;;1.90;0.15;;;16.70;99.90;;;;;;4159477;28;20058;-83
2022/07/15 08:02:10;;;;;;;0.93;0.10;;;16.80;99.90;;;;;;4124906;28;20042;-83
2022/07/15 08:04:11;;;;;;;0.95;0.43;;;17.00;99.90;;;;;;4099796;29;20051;-83
2022/07/15 08:06:12;;;;;;;2.08;0.30;;;17.10;99.90;;;;;;4133292;28;20129;-85
2022/07/15 08:08:15;;;;;;;2.38;0.20;;;17.10;99.90;;;;;;4133177;28;20093;-83
2022/07/15 08:10:18;;;;;;;0.20;0.20;;;17.20;99.90;;;;;;4134544;28;20085;-84
2022/07/15 08:12:18;;;;;;;2.85;0.80;;;17.20;99.90;;;;;;4117798;28;20055;-83
2022/07/15 08:14:19;;;;;;;2.75;0.20;;;17.30;99.70;;;;;;4134254;28;20125;-82
2022/07/15 08:16:21;;;;;;;0.40;0.20;;;17.50;99.60;;;;;;4101563;29;20047;-82
2022/07/15 08:18:22;;;;;;;1.38;1.02;;;17.60;99.20;;;;;;4147486;28;20573;-86
2022/07/15 08:20:23;;;;;;;0.30;0.10;;;17.80;99.00;;;;;;4086025;29;20055;-86
2022/07/15 08:22:24;;;;;;;3.97;0.93;;;18.00;98.70;;;;;;4106328;28;20031;-83
2022/07/15 08:24:24;;;;;;;1.25;0.20;;;18.20;98.50;;;;;;4134168;28;20169;-85
2022/07/15 08:26:25;;;;;;;2.20;0.40;;;18.20;98.20;;;;;;4115620;28;20070;-85
2022/07/15 08:28:26;;;;;;;1.63;0.10;;;18.10;98.20;;;;;;4131920;28;20041;-86
2022/07/15 08:30:28;;;;;;;0.70;0.20;;;18.10;98.30;;;;;;4100549;29;20051;-85
2022/07/15 08:32:30;;;;;;;1.15;0.20;;;18.00;98.40;;;;;;4134108;28;20085;-83
2022/07/15 08:34:32;;;;;;;0.43;0.20;;;17.90;98.30;;;;;;4113948;28;20042;-84
2022/07/15 08:36:32;;;;;;;1.02;0.38;;;17.80;98.40;;;;;;4133112;28;20482;-84
2022/07/15 08:38:33;;;;;;;1.38;0.22;;;17.90;98.70;;;;;;4138356;28;20163;-83
2022/07/15 08:40:35;;;;;;;2.05;0.30;;;17.80;98.50;;;;;;4132243;28;20054;-84
2022/07/15 08:42:39;;;;;;;0.52;0.10;;;17.90;98.50;;;;;;4115153;28;20095;-83
2022/07/15 08:44:40;;;;;;;2.20;0.45;;;17.90;98.30;;;;;;4146037;28;20406;-82
2022/07/15 08:46:47;;;;;;;1.60;0.17;;;17.90;97.90;;;;;;4120192;28;20050;-81
2022/07/15 08:48:51;;;;;;;0.82;0.20;;;18.00;97.80;;;;;;4120650;28;20035;-82
2022/07/15 08:50:54;;;;;;;2.40;0.30;;;18.00;97.40;;;;;;4105879;28;20043;-82
2022/07/15 08:52:55;;;;;;;1.52;0.30;;;18.10;97.10;;;;;;4140313;28;20490;-82
2022/07/15 08:54:56;;;;;;;1.55;0.35;;;18.20;96.90;;;;;;4126300;28;20057;-84
2022/07/15 08:56:57;;;;;;;2.47;0.38;;;18.20;96.50;;;;;;4122657;28;20047;-83
2022/07/15 08:58:58;;;;;;;2.58;0.13;;;18.20;96.20;;;;;;4115937;28;20089;-83
2022/07/15 09:01:00;;;;;;;1.67;0.70;;;18.30;96.00;;;;;;4142190;28;20049;-83
2022/07/15 09:03:04;;;;;;;4.97;0.50;;;18.40;95.90;;;;;;4118730;28;20050;-84
2022/07/15 09:05:29;;;;;;;2.55;0.20;;;18.60;95.80;;;;;;4127749;28;20058;-83
2022/07/15 09:07:30;;;;;;;3.45;0.40;;;18.80;95.50;;;;;;4115683;28;20059;-84
2022/07/15 09:09:36;;;;;;;1.50;0.70;;;19.00;95.10;;;;;;4115218;28;20053;-83
2022/07/15 09:11:37;;;;;;;1.25;0.50;;;19.00;94.60;;;;;;4116031;28;20046;-82
2022/07/15 09:13:40;;;;;;;1.08;0.20;;;19.10;94.00;;;;;;4114752;28;20121;-83
2022/07/15 09:15:41;;;;;;;4.45;0.50;;;19.30;93.80;;;;;;4133107;28;20121;-83
2022/07/15 09:17:42;;;;;;;2.63;0.63;;;19.50;94.10;;;;;;4126246;28;20054;-83
2022/07/15 09:20:09;;;;;;;3.67;0.40;;;19.50;95.10;;;;;;4137002;28;20133;-83
2022/07/15 09:22:10;;;;;;;1.95;0.22;;;19.40;95.80;;;;;;4120185;28;20050;-83
2022/07/15 09:24:19;;;;;;;4.15;0.40;;;19.10;95.90;;;;;;4120172;28;20450;-83
2022/07/15 09:26:38;;;;;;;1.20;0.22;;;18.90;96.50;;;;;;4108415;28;20115;-84
2022/07/15 09:28:40;;;;;;;1.35;0.20;;;18.70;96.50;;;;;;4112446;28;20059;-84
2022/07/15 09:37:58;;;;;;;1.95;0.30;;;19.00;97.30;;;;;;4147457;28;20057;-83
2022/07/15 09:40:00;;;;;;;0.40;0.10;;;19.00;97.20;;;;;;4147262;28;20058;-83
2022/07/15 09:42:11;;;;;;;3.38;0.28;;;18.90;96.50;;;;;;4124940;28;20053;-82
2022/07/15 09:44:16;;;;;;;0.98;0.20;;;18.80;95.90;;;;;;4137194;28;20507;-83
2022/07/15 09:46:18;;;;;;;0.70;0.20;;;18.80;96.30;;;;;;4117087;28;20435;-84
2022/07/15 09:48:19;;;;;;;3.90;0.80;;;18.80;96.00;;;;;;4137008;28;20069;-83
2022/07/15 09:50:36;;;;;;;0.90;0.30;;;18.80;96.00;;;;;;4115483;28;20049;-83
2022/07/15 09:52:47;;;;;;;3.60;0.40;;;18.80;95.40;;;;;;4099402;29;20550;-83
2022/07/15 09:54:49;;;;;;;2.90;0.63;;;18.80;95.50;;;;;;4115515;28;20458;-85
2022/07/15 09:56:51;;;;;;;1.25;0.30;;;18.80;95.20;;;;;;4132112;28;20100;-83
2022/07/15 09:58:52;;;;;;;1.50;0.25;;;18.80;95.00;;;;;;4132175;28;20467;-82
2022/07/15 10:00:53;;;;;;;1.27;0.25;;;18.80;94.80;;;;;;4122054;28;20089;-82
2022/07/15 10:02:54;;;;;;;0.52;0.17;;;18.80;94.60;;;;;;4132543;28;20046;-83
2022/07/15 10:04:55;;;;;;;3.00;0.50;;;18.80;94.50;;;;;;4142806;28;20050;-82
2022/07/15 10:06:59;;;;;;;3.50;0.57;;;18.90;94.40;;;;;;4123935;28;20039;-82
2022/07/15 10:09:01;;;;;;;2.17;0.32;;;19.00;94.60;;;;;;4115788;28;20100;-82
2022/07/15 10:11:08;;;;;;;2.20;0.30;;;19.10;94.70;;;;;;4099578;29;20058;-82
2022/07/15 10:13:26;;;;;;;1.33;0.30;;;19.20;94.10;;;;;;4104374;28;20492;-81
2022/07/15 10:15:41;;;;;;;1.00;0.30;;;19.20;93.60;;;;;;4147472;28;20054;-82
2022/07/15 10:17:48;;;;;;;1.77;0.90;;;19.20;93.20;;;;;;4099243;29;20091;-84
2022/07/15 10:20:22;;;;;;;4.93;0.30;;;19.30;93.50;;;;;;4115727;28;20054;-82
2022/07/15 10:22:51;;;;;;;1.27;0.30;;;19.40;92.10;;;;;;4117239;28;20050;-81
2022/07/15 10:25:13;;;;;;;2.33;0.47;;;19.60;92.20;;;;;;4130094;28;20494;-82
2022/07/15 10:27:28;;;;;;;3.05;0.75;;;19.70;92.70;;;;;;4135526;28;20043;-82
2022/07/15 10:29:33;;;;;;;1.38;0.10;;;19.80;92.80;;;;;;4117384;28;20531;-82
2022/07/15 10:31:37;;;;;;;0.43;0.43;;;20.00;92.10;;;;;;4133464;28;20046;-81
2022/07/15 10:33:38;;;;;;;3.40;1.05;;;20.00;92.00;;;;;;4134960;28;20034;-82
2022/07/15 10:35:43;;;;;;;0.52;0.20;;;20.10;91.70;;;;;;4134803;28;20042;-83
2022/07/15 10:38:28;;;;;;;1.50;0.20;;;20.10;91.90;;;;;;4134895;28;20181;-83
2022/07/15 10:41:08;;;;;;;1.58;1.13;;;20.20;90.30;;;;;;4134361;28;20122;-83
2022/07/15 10:43:09;;;;;;;2.75;0.30;;;20.00;90.10;;;;;;4114899;28;20050;-83
2022/07/15 10:45:09;;;;;;;0.75;0.20;;;19.90;91.10;;;;;;4117442;28;20495;-83
2022/07/15 10:47:11;;;;;;;2.40;0.20;;;19.80;90.90;;;;;;4135228;28;20089;-83